Time;durP1;ratioP1;P1;durP2;ratioP2;P2;SDS_P1;SDS_P2;PMS_P1;PMS_P2;Temp;Humidity;BMP_temperature;BMP_pressure;BME280_temperature;BME280_humidity;BME280_pressure;Samples;Min_cycle;Max_cycle;Signal;HPM_P1;HPM_P2
2022/11/23 00:01:54;;;;;;;101.38;91.22;;;;;;;12.70;73.42;100810.44;4954487;28;102531;-53
2022/11/23 00:04:23;;;;;;;99.38;88.95;;;;;;;12.72;73.78;100813.69;4949894;28;102366;-53
2022/11/23 00:06:50;;;;;;;;;;;;;;;12.72;73.52;100812.88;4958319;28;104886;-53
2022/11/23 00:09:16;;;;;;;90.50;80.55;;;;;;;12.70;73.95;100826.03;4952877;28;103927;-54
2022/11/23 00:11:43;;;;;;;98.18;87.68;;;;;;;12.70;73.80;100832.28;4945002;28;102072;-53
2022/11/23 00:14:11;;;;;;;98.38;88.03;;;;;;;12.70;73.81;100820.56;4939548;28;102618;-53
2022/11/23 00:16:38;;;;;;;98.80;88.32;;;;;;;12.68;73.91;100823.56;4944879;28;104515;-53
2022/11/23 00:19:05;;;;;;;96.88;86.68;;;;;;;12.68;73.56;100837.22;4941543;28;104052;-53
2022/11/23 00:21:32;;;;;;;98.13;87.90;;;;;;;12.68;73.79;100834.47;4949342;28;102159;-54
2022/11/23 00:23:59;;;;;;;99.75;89.28;;;;;;;12.70;73.76;100831.47;4944121;28;102377;-53
2022/11/23 00:26:26;;;;;;;103.85;93.25;;;;;;;12.68;73.92;100820.81;4951958;28;102292;-53
2022/11/23 00:28:52;;;;;;;104.03;93.55;;;;;;;12.67;73.76;100816.47;4937820;28;103843;-53
2022/11/23 00:31:21;;;;;;;103.15;92.57;;;;;;;12.68;73.69;100823.56;4949452;28;102178;-53
2022/11/23 00:33:48;;;;;;;102.30;91.97;;;;;;;12.68;73.76;100823.56;4943747;28;102079;-53
2022/11/23 00:36:16;;;;;;;104.10;92.68;;;;;;;12.67;73.75;100821.94;4942068;28;102185;-53
2022/11/23 00:38:44;;;;;;;104.00;93.43;;;;;;;12.68;73.62;100818.09;4945351;28;104421;-53
2022/11/23 00:41:13;;;;;;;100.13;89.70;;;;;;;12.68;73.86;100817.28;4952739;28;104882;-53
2022/11/23 00:43:40;;;;;;;100.03;89.90;;;;;;;12.67;73.95;100811.00;4945872;28;102671;-53
2022/11/23 00:46:10;;;;;;;100.57;90.28;;;;;;;12.66;73.74;100820.31;4952026;28;102776;-53
2022/11/23 00:48:39;;;;;;;96.43;86.47;;;;;;;12.69;73.53;100817.03;4939601;28;104168;-53
2022/11/23 00:51:07;;;;;;;98.33;88.37;;;;;;;12.67;73.59;100819.19;4949915;28;102381;-53
2022/11/23 00:53:35;;;;;;;99.63;89.72;;;;;;;12.65;73.77;100813.19;4943630;28;103258;-53
2022/11/23 00:56:03;;;;;;;100.00;90.07;;;;;;;12.65;73.62;100806.91;4953542;28;102646;-53
2022/11/23 00:58:29;;;;;;;92.55;82.80;;;;;;;12.66;73.83;100809.38;4937131;28;103918;-53
2022/11/23 01:01:01;;;;;;;96.10;86.65;;;;;;;12.64;73.64;100817.03;4944382;28;102260;-53
2022/11/23 01:03:28;;;;;;;96.47;86.88;;;;;;;12.64;73.56;100817.03;4956036;28;102126;-53
2022/11/23 01:06:01;;;;;;;92.90;83.65;;;;;;;12.64;73.63;100810.75;4953764;28;102271;-53
2022/11/23 01:08:27;;;;;;;97.88;88.45;;;;;;;12.64;73.70;100817.03;4937818;28;104137;-53
2022/11/23 01:10:58;;;;;;;96.50;87.25;;;;;;;12.63;73.44;100804.50;4951268;28;102556;-53
2022/11/23 01:13:24;;;;;;;99.97;90.00;;;;;;;12.63;73.62;100811.88;4945340;28;101946;-54
2022/11/23 01:15:51;;;;;;;98.47;88.85;;;;;;;12.64;73.45;100806.09;4951235;28;102338;-53
2022/11/23 01:18:17;;;;;;;92.00;83.22;;;;;;;12.64;73.31;100799.84;4941949;28;104062;-53
2022/11/23 01:20:44;;;;;;;92.43;83.40;;;;;;;12.65;73.31;100805.00;4943875;28;102373;-53
2022/11/23 01:23:13;;;;;;;91.85;82.88;;;;;;;12.64;73.40;100800.66;4946684;28;102968;-53
2022/11/23 01:25:40;;;;;;;94.80;85.17;;;;;;;12.62;73.35;100789.22;4953426;28;102259;-53
2022/11/23 01:28:07;;;;;;;97.72;88.43;;;;;;;12.59;73.46;100784.31;4939275;28;103855;-53
2022/11/23 01:30:35;;;;;;;93.93;84.75;;;;;;;12.60;73.53;100791.41;4947188;28;102090;-53
2022/11/23 01:33:03;;;;;;;90.25;81.70;;;;;;;12.59;73.68;100797.97;4949204;28;102217;-53
2022/11/23 01:35:30;;;;;;;89.72;81.38;;;;;;;12.56;73.70;100795.78;4949541;28;102197;-54
2022/11/23 01:37:56;;;;;;;89.43;81.07;;;;;;;12.57;73.53;100791.97;4945053;28;103946;-53
2022/11/23 01:40:24;;;;;;;90.97;82.50;;;;;;;12.57;73.65;100800.16;4939635;28;102925;-53
2022/11/23 01:42:54;;;;;;;87.43;79.00;;;;;;;12.57;73.55;100804.78;4940733;28;102852;-53
2022/11/23 01:45:39;;;;;;;84.28;76.40;;;;;;;12.56;73.81;100797.72;4954907;28;103786;-53
2022/11/23 01:48:12;;;;;;;86.10;77.90;;;;;;;12.56;73.59;100809.44;4949865;28;103912;-53
2022/11/23 01:50:42;;;;;;;83.00;75.40;;;;;;;12.56;73.60;100809.44;4951731;28;102224;-53
2022/11/23 01:53:08;;;;;;;91.43;83.00;;;;;;;12.58;73.57;100806.41;4941148;28;102409;-53
2022/11/23 01:55:37;;;;;;;88.05;79.85;;;;;;;12.58;73.54;100807.22;4950766;28;102587;-53
2022/11/23 01:58:08;;;;;;;83.72;75.78;;;;;;;12.56;73.59;100803.19;4940744;28;104209;-54
2022/11/23 02:00:36;;;;;;;82.63;75.05;;;;;;;12.57;73.57;100802.88;4945160;28;102434;-53
2022/11/23 02:03:07;;;;;;;81.72;74.20;;;;;;;12.56;73.61;100797.72;4942793;28;102496;-53
2022/11/23 02:05:40;;;;;;;84.70;77.00;;;;;;;12.55;73.57;100794.16;4943023;28;102544;-53
2022/11/23 02:08:12;;;;;;;83.45;75.90;;;;;;;12.55;73.62;100788.72;4941827;28;104050;-53
2022/11/23 02:10:41;;;;;;;81.47;74.40;;;;;;;12.53;73.75;100785.44;4941604;28;102300;-53
2022/11/23 02:13:11;;;;;;;81.53;74.33;;;;;;;12.50;73.87;100777.81;4941443;28;104203;-53
2022/11/23 02:15:38;;;;;;;87.65;80.13;;;;;;;12.50;73.78;100788.72;4944565;28;102285;-53
2022/11/23 02:18:10;;;;;;;85.30;78.05;;;;;;;12.52;73.64;100774.81;4947544;28;104368;-53
2022/11/23 02:20:37;;;;;;;82.28;75.20;;;;;;;12.50;73.69;100775.06;4943538;28;102095;-53
2022/11/23 02:23:17;;;;;;;83.13;75.68;;;;;;;12.48;73.56;100759.00;4945446;28;102631;-53
2022/11/23 02:26:01;;;;;;;81.00;73.80;;;;;;;12.46;73.73;100771.28;4942307;28;103484;-53
2022/11/23 02:28:32;;;;;;;79.13;72.13;;;;;;;12.47;73.64;100762.81;4948637;28;103888;-53
2022/11/23 02:31:00;;;;;;;78.40;71.40;;;;;;;12.46;73.72;100769.38;4944564;28;104082;-53
2022/11/23 02:33:28;;;;;;;77.25;70.47;;;;;;;12.46;73.35;100777.56;4943169;28;102621;-53
2022/11/23 02:35:56;;;;;;;77.95;71.18;;;;;;;12.46;73.48;100763.91;4945152;28;102886;-53
2022/11/23 02:38:26;;;;;;;79.70;72.95;;;;;;;12.45;73.61;100759.56;4946017;28;103956;-53
2022/11/23 02:40:52;;;;;;;73.55;66.97;;;;;;;12.45;73.24;100767.75;4940917;28;102634;-53
2022/11/23 02:43:20;;;;;;;74.50;67.93;;;;;;;12.44;73.43;100774.31;4942602;28;102369;-53
2022/11/23 02:45:51;;;;;;;79.13;72.43;;;;;;;12.42;73.59;100767.50;4937624;28;102836;-53
2022/11/23 02:48:18;;;;;;;74.00;67.97;;;;;;;12.42;73.62;100764.75;4940147;28;104205;-53
2022/11/23 02:50:45;;;;;;;73.20;67.03;;;;;;;12.42;73.49;100765.56;4940251;28;102900;-53
2022/11/23 02:53:12;;;;;;;73.97;67.82;;;;;;;12.42;73.57;100767.50;4942534;28;102658;-53
2022/11/23 02:55:39;;;;;;;73.43;67.45;;;;;;;12.41;73.67;100768.59;4943872;28;102113;-53
2022/11/23 02:58:06;;;;;;;74.00;68.00;;;;;;;12.42;73.48;100764.75;4940756;28;103875;-53
2022/11/23 03:00:35;;;;;;;73.07;67.05;;;;;;;12.40;73.62;100762.31;4940884;28;102807;-53
2022/11/23 03:03:03;;;;;;;73.75;68.00;;;;;;;12.37;73.51;100760.16;4946341;28;102858;-53
2022/11/23 03:05:30;;;;;;;79.40;73.03;;;;;;;12.38;73.55;100774.63;4945299;28;102860;-54
2022/11/23 03:07:57;;;;;;;72.25;66.32;;;;;;;12.37;73.46;100768.34;4942287;28;104112;-54
2022/11/23 03:10:23;;;;;;;73.03;67.20;;;;;;;12.38;73.61;100777.34;4941170;28;102348;-54
2022/11/23 03:12:53;;;;;;;77.63;71.75;;;;;;;12.38;73.13;100786.34;4942545;28;102457;-53
2022/11/23 03:15:19;;;;;;;72.30;66.65;;;;;;;12.38;73.32;100788.25;4941296;28;103294;-53
2022/11/23 03:17:51;;;;;;;71.30;65.93;;;;;;;12.38;73.53;100785.53;4940155;28;104818;-53
2022/11/23 03:20:17;;;;;;;70.55;65.18;;;;;;;12.36;73.51;100788.53;4938915;28;102701;-53
2022/11/23 03:22:44;;;;;;;74.72;68.93;;;;;;;12.38;73.34;100780.06;4939554;28;102288;-53
2022/11/23 03:25:11;;;;;;;72.47;66.80;;;;;;;12.37;73.39;100773.81;4941754;28;102331;-53
2022/11/23 03:27:38;;;;;;;68.00;62.60;;;;;;;12.37;73.35;100778.41;4940732;28;103860;-53
2022/11/23 03:30:07;;;;;;;73.95;68.57;;;;;;;12.36;73.38;100782.25;4943562;28;102726;-53
2022/11/23 03:32:34;;;;;;;68.63;63.42;;;;;;;12.36;73.34;100787.72;4941682;28;102402;-53
2022/11/23 03:35:03;;;;;;;75.22;69.68;;;;;;;12.35;73.31;100786.91;4939278;28;102467;-53
2022/11/23 03:37:31;;;;;;;69.78;64.47;;;;;;;12.36;73.22;100793.16;4947996;28;103928;-53
2022/11/23 03:39:58;;;;;;;67.55;62.45;;;;;;;12.35;73.22;100780.63;4943224;28;102220;-53
2022/11/23 03:42:27;;;;;;;65.53;60.63;;;;;;;12.35;73.25;100780.63;4946602;28;102291;-53
2022/11/23 03:44:53;;;;;;;66.45;61.38;;;;;;;12.34;73.12;100784.47;4945033;28;102317;-53
2022/11/23 03:47:20;;;;;;;70.55;65.32;;;;;;;12.33;73.47;100777.34;4941739;28;103914;-53
2022/11/23 03:49:47;;;;;;;70.93;65.80;;;;;;;12.32;73.40;100770.28;4941409;28;102580;-53
2022/11/23 03:52:16;;;;;;;70.13;65.10;;;;;;;12.33;73.16;100771.91;4938423;28;102483;-53
2022/11/23 03:54:43;;;;;;;68.40;63.63;;;;;;;12.30;73.19;100769.72;4939655;28;102438;-53
2022/11/23 03:57:09;;;;;;;66.28;61.45;;;;;;;12.31;73.08;100774.13;4942589;28;104221;-53
2022/11/23 03:59:37;;;;;;;73.50;68.40;;;;;;;12.30;73.38;100769.72;4943971;28;103508;-53
2022/11/23 04:02:03;;;;;;;67.03;62.10;;;;;;;12.30;73.03;100761.53;4936648;28;102398;-53
2022/11/23 04:04:30;;;;;;;68.88;64.07;;;;;;;12.29;73.31;100754.47;4952472;28;102211;-53
2022/11/23 04:06:57;;;;;;;66.45;61.50;;;;;;;12.28;73.04;100753.66;4942261;28;103899;-53
2022/11/23 04:09:25;;;;;;;66.80;61.90;;;;;;;12.29;73.06;100765.38;4941303;28;102308;-53
2022/11/23 04:11:51;;;;;;;68.90;63.85;;;;;;;12.27;73.27;100762.94;4941394;28;102572;-53
2022/11/23 04:14:18;;;;;;;67.28;62.40;;;;;;;12.26;72.78;100766.75;4943630;28;102563;-53
2022/11/23 04:16:44;;;;;;;64.38;59.65;;;;;;;12.23;73.19;100743.59;4942002;28;104084;-53
2022/11/23 04:19:13;;;;;;;65.32;60.45;;;;;;;12.24;73.11;100736.22;4947962;28;105004;-52
2022/11/23 04:21:40;;;;;;;67.07;62.17;;;;;;;12.23;73.03;100743.59;4949810;28;102698;-53
2022/11/23 04:24:07;;;;;;;70.35;65.35;;;;;;;12.25;73.05;100726.91;4952958;28;102389;-53
2022/11/23 04:26:35;;;;;;;65.50;60.72;;;;;;;12.23;72.87;100740.06;4943740;28;103955;-53
2022/11/23 04:29:03;;;;;;;67.55;62.65;;;;;;;12.23;73.17;100735.41;4949487;28;101924;-53
2022/11/23 04:31:30;;;;;;;63.08;58.53;;;;;;;12.22;72.86;100733.75;4944370;28;102396;-53
2022/11/23 04:33:56;;;;;;;67.53;62.67;;;;;;;12.21;72.90;100740.31;4951217;28;102296;-53
2022/11/23 04:36:24;;;;;;;61.90;57.53;;;;;;;12.21;73.42;100747.69;4944078;28;103921;-53
2022/11/23 04:38:50;;;;;;;64.05;59.45;;;;;;;12.20;73.33;100746.88;4950849;28;102346;-53
2022/11/23 04:41:17;;;;;;;62.03;57.55;;;;;;;12.22;72.91;100750.13;4952968;28;102265;-53
2022/11/23 04:43:46;;;;;;;62.92;58.40;;;;;;;12.22;73.12;100736.47;4947562;28;102397;-53
2022/11/23 04:46:13;;;;;;;65.20;60.67;;;;;;;12.21;73.02;100728.59;4946427;28;104040;-53
2022/11/23 04:48:40;;;;;;;63.35;58.75;;;;;;;12.21;73.13;100737.59;4948084;28;103621;-53
2022/11/23 04:51:06;;;;;;;64.30;59.83;;;;;;;12.21;73.15;100734.84;4955205;28;102250;-53
2022/11/23 04:53:33;;;;;;;67.38;62.58;;;;;;;12.20;73.25;100735.97;4955882;28;102557;-53
2022/11/23 04:56:00;;;;;;;60.22;55.85;;;;;;;12.22;73.20;100738.41;4952172;28;104112;-53
2022/11/23 04:58:26;;;;;;;59.22;55.17;;;;;;;12.21;73.06;100732.13;4948643;28;102299;-53
2022/11/23 05:00:56;;;;;;;62.72;58.33;;;;;;;12.22;72.94;100725.56;4950390;28;102640;-53
2022/11/23 05:03:22;;;;;;;63.63;59.13;;;;;;;12.24;72.42;100742.47;4946280;28;102149;-53
2022/11/23 05:05:48;;;;;;;64.80;60.22;;;;;;;12.24;72.72;100736.22;4944140;28;104079;-53
2022/11/23 05:08:15;;;;;;;61.50;56.97;;;;;;;12.24;72.95;100739.75;4942914;28;102110;-53
2022/11/23 05:10:42;;;;;;;67.15;62.55;;;;;;;12.26;72.81;100736.72;4943108;28;102242;-53
2022/11/23 05:13:09;;;;;;;63.97;59.60;;;;;;;12.27;72.60;100733.75;4943305;28;102207;-53
2022/11/23 05:15:35;;;;;;;65.55;61.10;;;;;;;12.27;72.83;100739.19;4945629;28;103794;-53
2022/11/23 05:18:05;;;;;;;60.95;56.88;;;;;;;12.30;72.87;100756.09;4954964;28;102332;-53
2022/11/23 05:20:32;;;;;;;57.92;53.72;;;;;;;12.29;72.61;100749.81;4943454;28;102429;-53
2022/11/23 05:23:01;;;;;;;;;;;;;;;12.30;72.66;100762.38;4952503;28;102233;-53
2022/11/23 05:25:27;;;;;;;49.70;46.00;;;;;;;12.31;72.52;100772.19;4946423;28;104059;-53
2022/11/23 05:27:55;;;;;;;55.83;51.90;;;;;;;12.30;72.65;100761.53;4940767;28;102742;-53
2022/11/23 05:30:22;;;;;;;57.40;53.50;;;;;;;12.29;72.85;100754.47;4941579;28;102514;-53
2022/11/23 05:32:50;;;;;;;57.50;53.53;;;;;;;12.29;72.52;100752.53;4945359;28;102546;-53
2022/11/23 05:35:18;;;;;;;59.30;55.28;;;;;;;12.27;72.77;100741.94;4954167;28;103865;-53
2022/11/23 05:37:44;;;;;;;57.72;53.58;;;;;;;12.26;72.79;100745.75;4942325;28;102252;-54
2022/11/23 05:40:11;;;;;;;62.45;58.20;;;;;;;12.25;72.82;100738.66;4943583;28;102412;-54
2022/11/23 05:42:41;;;;;;;57.08;53.03;;;;;;;12.25;72.96;100735.91;4940488;28;102524;-53
2022/11/23 05:45:09;;;;;;;62.47;58.13;;;;;;;12.23;73.05;100724.50;4945467;28;104126;-54
2022/11/23 05:47:36;;;;;;;57.35;53.53;;;;;;;12.22;73.02;100725.56;4948421;28;102385;-53
2022/11/23 05:50:03;;;;;;;55.28;51.42;;;;;;;12.24;72.97;100723.38;4953425;28;102160;-53
2022/11/23 05:52:31;;;;;;;55.80;52.00;;;;;;;12.25;72.95;100732.38;4947055;28;102080;-53
2022/11/23 05:54:58;;;;;;;57.17;53.25;;;;;;;12.23;72.83;100735.41;4939318;28;104015;-53
2022/11/23 05:57:24;;;;;;;56.60;52.70;;;;;;;12.22;73.18;100728.28;4946679;28;102405;-53
2022/11/23 05:59:51;;;;;;;61.45;57.35;;;;;;;12.23;72.95;100732.69;4941796;28;102144;-53
2022/11/23 06:02:18;;;;;;;59.17;55.25;;;;;;;12.23;72.88;100729.94;4949369;28;102237;-53
2022/11/23 06:04:45;;;;;;;57.50;53.70;;;;;;;12.23;73.07;100735.41;4950036;28;103926;-53
2022/11/23 06:07:12;;;;;;;59.63;55.65;;;;;;;12.25;72.90;100738.66;4949259;28;102402;-53
2022/11/23 06:09:39;;;;;;;62.13;57.83;;;;;;;12.25;73.16;100730.47;4952026;28;102011;-53
2022/11/23 06:12:06;;;;;;;59.70;55.67;;;;;;;12.25;72.75;100738.66;4950740;28;102322;-53
2022/11/23 06:14:33;;;;;;;59.97;56.03;;;;;;;12.26;73.12;100740.31;4936902;28;103971;-53
2022/11/23 06:17:00;;;;;;;59.50;55.40;;;;;;;12.27;72.97;100747.38;4949054;28;102481;-53
2022/11/23 06:19:28;;;;;;;59.60;55.67;;;;;;;12.28;72.99;100742.75;4939284;28;102278;-53
2022/11/23 06:21:56;;;;;;;56.88;52.90;;;;;;;12.27;73.45;100731.00;4954601;28;102654;-53
2022/11/23 06:24:23;;;;;;;58.25;54.38;;;;;;;12.26;72.74;100723.94;4937816;28;103839;-53
2022/11/23 06:26:54;;;;;;;60.08;56.08;;;;;;;12.24;73.11;100731.56;4951072;28;102134;-54
2022/11/23 06:29:21;;;;;;;57.88;53.83;;;;;;;12.23;72.96;100723.69;4942943;28;102540;-53
2022/11/23 06:31:47;;;;;;;58.13;54.25;;;;;;;12.23;73.03;100729.94;4941781;28;102566;-53
2022/11/23 06:34:14;;;;;;;62.25;58.13;;;;;;;12.23;72.85;100724.50;4947700;28;103873;-53
2022/11/23 06:36:42;;;;;;;57.63;53.72;;;;;;;12.24;73.10;100725.31;4943163;28;102306;-53
2022/11/23 06:39:08;;;;;;;60.58;56.42;;;;;;;12.21;73.26;100726.66;4948633;28;102747;-53
2022/11/23 06:41:35;;;;;;;57.90;53.88;;;;;;;12.22;73.20;100722.03;4945291;28;102678;-53
2022/11/23 06:44:03;;;;;;;56.58;52.65;;;;;;;12.21;72.82;100721.22;4944423;28;103928;-53
2022/11/23 06:46:30;;;;;;;56.88;53.03;;;;;;;12.21;73.32;100723.94;4942398;28;102644;-53
2022/11/23 06:48:57;;;;;;;58.17;53.90;;;;;;;12.22;73.10;100720.09;4936092;28;102378;-53
2022/11/23 06:51:23;;;;;;;59.08;55.00;;;;;;;12.22;73.14;100717.38;4941877;28;102241;-53
2022/11/23 06:53:50;;;;;;;56.65;52.67;;;;;;;12.24;73.08;100709.75;4955099;28;104335;-53
2022/11/23 06:56:16;;;;;;;58.47;54.47;;;;;;;12.26;72.77;100713.03;4947901;28;102290;-53
2022/11/23 07:47:21;;;;;;;77.35;72.57;;;;;;;12.15;73.17;100697.81;5001811;28;102530;-54
2022/11/23 07:49:48;;;;;;;51.78;48.13;;;;;;;12.15;73.40;100688.78;4977053;28;102096;-54
2022/11/23 07:52:14;;;;;;;50.42;46.85;;;;;;;12.15;73.36;100689.63;4983368;28;104043;-54
2022/11/23 07:54:41;;;;;;;47.45;43.95;;;;;;;12.15;73.40;100684.16;4981012;28;102383;-54
2022/11/23 07:57:07;;;;;;;45.63;42.22;;;;;;;12.16;72.59;100682.25;4984678;28;102228;-54
2022/11/23 07:59:34;;;;;;;47.53;43.97;;;;;;;12.16;73.14;100674.06;4972469;28;102451;-54
2022/11/23 08:02:01;;;;;;;44.80;41.63;;;;;;;12.16;73.31;100666.69;4962272;28;103907;-54
2022/11/23 08:04:29;;;;;;;46.38;42.88;;;;;;;12.16;73.35;100669.41;4961997;28;102625;-54
2022/11/23 08:06:55;;;;;;;46.73;43.30;;;;;;;12.16;73.00;100661.25;4977945;28;102436;-54
2022/11/23 08:09:22;;;;;;;46.10;42.75;;;;;;;12.17;73.06;100665.59;4968060;28;102685;-54
2022/11/23 08:11:49;;;;;;;45.42;42.08;;;;;;;12.19;73.30;100655.22;4954510;28;104217;-54
2022/11/23 08:14:20;;;;;;;48.30;44.90;;;;;;;12.22;72.97;100659.28;4953181;28;102265;-54
2022/11/23 08:16:48;;;;;;;49.97;46.33;;;;;;;12.21;73.42;100639.38;4956913;28;102300;-54
2022/11/23 08:19:15;;;;;;;48.33;45.00;;;;;;;12.18;73.33;100648.09;4980874;28;102161;-54
2022/11/23 08:21:43;;;;;;;47.38;44.00;;;;;;;12.13;72.97;100639.97;4984672;28;104174;-54
2022/11/23 08:24:10;;;;;;;48.83;45.23;;;;;;;12.14;73.65;100638.88;4978338;28;102354;-54
2022/11/23 08:26:38;;;;;;;46.65;43.40;;;;;;;12.17;73.74;100638.31;4982266;28;102344;-54
2022/11/23 08:29:04;;;;;;;50.45;46.88;;;;;;;12.20;73.09;100640.47;4977446;28;102655;-54
2022/11/23 08:31:31;;;;;;;49.28;45.65;;;;;;;12.20;73.22;100637.75;4951783;28;104325;-54
2022/11/23 08:33:58;;;;;;;52.03;48.40;;;;;;;12.21;73.38;100631.19;4953240;28;102596;-54
2022/11/23 08:36:24;;;;;;;48.05;44.55;;;;;;;12.20;73.23;100626.81;4958273;28;102520;-54
2022/11/23 08:38:53;;;;;;;51.35;47.75;;;;;;;12.21;73.13;100617.53;4976460;28;102002;-54
2022/11/23 08:41:20;;;;;;;44.88;41.67;;;;;;;12.21;73.66;100612.09;4978581;28;104026;-54
2022/11/23 08:43:46;;;;;;;46.55;43.05;;;;;;;12.22;73.47;100599.25;4956728;28;102226;-54
2022/11/23 08:46:13;;;;;;;46.67;43.50;;;;;;;12.22;73.42;100608.25;4956807;28;102242;-54
2022/11/23 08:48:40;;;;;;;50.25;46.75;;;;;;;12.23;73.34;100593.53;4944105;28;102134;-54
2022/11/23 08:51:08;;;;;;;48.88;45.47;;;;;;;12.23;73.30;100607.16;4957102;28;103866;-53
2022/11/23 08:53:35;;;;;;;49.05;45.58;;;;;;;12.24;73.24;100588.88;4958184;28;102226;-54
2022/11/23 08:56:05;;;;;;;47.22;43.95;;;;;;;12.23;73.62;100592.72;4957744;28;102171;-54
2022/11/23 08:58:32;;;;;;;47.33;44.03;;;;;;;12.21;73.64;100584.78;4959115;28;102303;-53
2022/11/23 09:00:58;;;;;;;46.13;42.85;;;;;;;12.21;73.96;100587.53;4937914;28;103519;-53
2022/11/23 09:03:25;;;;;;;47.75;44.45;;;;;;;12.22;73.62;100585.59;4946793;28;102014;-54
2022/11/23 09:05:53;;;;;;;47.00;43.53;;;;;;;12.22;73.60;100588.34;4957629;28;102417;-54
2022/11/23 09:08:19;;;;;;;47.22;43.90;;;;;;;12.22;73.96;100591.06;4957117;28;102624;-54
2022/11/23 09:10:46;;;;;;;46.78;43.47;;;;;;;12.22;73.76;100591.88;4942308;28;103918;-54
2022/11/23 09:13:14;;;;;;;44.63;41.45;;;;;;;12.20;73.60;100588.63;4939451;28;103090;-54
2022/11/23 09:15:40;;;;;;;44.67;41.55;;;;;;;12.21;73.94;100592.97;4954541;28;102239;-54
2022/11/23 09:18:08;;;;;;;43.97;40.97;;;;;;;12.21;73.83;100589.44;4945440;28;102617;-54
2022/11/23 09:20:35;;;;;;;41.38;38.53;;;;;;;12.24;73.72;100588.88;4955428;28;103960;-54
2022/11/23 09:23:02;;;;;;;43.72;40.67;;;;;;;12.26;73.63;100581.19;4939014;28;101995;-53
2022/11/23 09:25:28;;;;;;;41.50;38.67;;;;;;;12.23;73.76;100577.16;4938583;28;102265;-53
2022/11/23 09:27:57;;;;;;;42.05;39.22;;;;;;;12.24;73.72;100576.03;4939380;28;102193;-54
2022/11/23 09:30:25;;;;;;;44.35;41.42;;;;;;;12.25;73.97;100568.66;4939923;28;104009;-54
2022/11/23 09:32:54;;;;;;;44.50;41.58;;;;;;;12.24;73.88;100576.03;4949349;28;101955;-54
2022/11/23 09:35:20;;;;;;;38.88;36.15;;;;;;;12.22;73.70;100569.25;4945045;28;102060;-54
2022/11/23 09:37:53;;;;;;;43.65;40.85;;;;;;;12.22;73.83;100564.59;4942270;28;102229;-54
2022/11/23 09:40:20;;;;;;;41.25;38.50;;;;;;;12.22;73.96;100553.69;4941404;28;104393;-54
2022/11/23 09:43:07;;;;;;;41.97;38.97;;;;;;;12.24;73.66;100558.88;4956983;28;102187;-54
2022/11/23 09:45:45;;;;;;;39.13;36.33;;;;;;;12.24;73.91;100556.94;4939850;28;102739;-54
2022/11/23 09:48:36;;;;;;;38.97;36.20;;;;;;;12.27;73.61;100564.56;4941070;28;102751;-54
2022/11/23 09:51:08;;;;;;;39.55;36.88;;;;;;;12.25;73.95;100566.75;4951908;28;103848;-54
2022/11/23 09:53:44;;;;;;;36.83;34.35;;;;;;;12.27;73.89;100564.56;4947607;28;102311;-54
2022/11/23 09:56:16;;;;;;;39.28;36.63;;;;;;;12.27;73.67;100561.84;4957241;28;102260;-53
2022/11/23 09:58:43;;;;;;;41.63;38.90;;;;;;;12.28;73.82;100562.66;4939362;28;102815;-54
2022/11/23 10:01:14;;;;;;;39.83;37.17;;;;;;;12.30;74.30;100554.16;4938594;28;104225;-54
2022/11/23 10:03:44;;;;;;;41.58;38.78;;;;;;;12.26;73.92;100538.38;4942803;28;102055;-54
2022/11/23 10:06:17;;;;;;;38.33;35.55;;;;;;;12.27;73.88;100534.56;4941734;28;102291;-54
2022/11/23 10:09:00;;;;;;;37.88;35.30;;;;;;;12.26;73.97;100526.63;4943599;28;102754;-53
2022/11/23 10:11:53;;;;;;;37.65;35.13;;;;;;;12.26;73.79;100510.25;4943098;28;103771;-54
2022/11/23 10:14:41;;;;;;;39.05;36.42;;;;;;;12.26;73.92;100510.25;4942190;28;102698;-54
2022/11/23 10:17:17;;;;;;;33.97;31.73;;;;;;;12.25;73.99;100498.53;4944270;28;102301;-54
2022/11/23 10:19:58;;;;;;;39.00;36.40;;;;;;;12.25;74.17;100493.09;4944161;28;102812;-54
2022/11/23 10:22:33;;;;;;;36.75;34.35;;;;;;;12.25;74.47;100481.34;4944009;28;104568;-54
2022/11/23 10:25:03;;;;;;;35.60;33.17;;;;;;;12.21;74.35;100478.38;4942875;28;102003;-54
2022/11/23 10:27:30;;;;;;;34.58;32.22;;;;;;;12.22;74.26;100477.28;4946724;28;102525;-54
2022/11/23 10:29:58;;;;;;;35.45;32.72;;;;;;;12.24;74.21;100483.28;4946254;28;102532;-53
2022/11/23 10:32:35;;;;;;;37.95;35.45;;;;;;;12.24;74.31;100485.19;4945320;28;103894;-54
2022/11/23 10:35:10;;;;;;;37.15;34.75;;;;;;;12.24;74.21;100472.38;4940794;28;102623;-53
2022/11/23 10:37:38;;;;;;;38.00;35.60;;;;;;;12.25;74.51;100473.97;4941743;28;102775;-53
2022/11/23 10:40:15;;;;;;;35.38;33.08;;;;;;;12.24;74.53;100469.63;4944347;28;102969;-54
2022/11/23 10:42:46;;;;;;;34.45;32.15;;;;;;;12.25;74.42;100463.06;4952384;28;104551;-54
2022/11/23 10:45:19;;;;;;;35.83;33.55;;;;;;;12.26;74.37;100467.44;4961197;28;102735;-54
2022/11/23 10:47:51;;;;;;;32.60;30.45;;;;;;;12.26;74.42;100462.00;4945802;28;102784;-54
2022/11/23 10:50:26;;;;;;;34.55;32.45;;;;;;;12.27;74.26;100463.59;4942338;28;102316;-53
2022/11/23 10:52:55;;;;;;;31.80;29.83;;;;;;;12.29;74.41;100459.75;4939410;28;103903;-53
2022/11/23 10:55:28;;;;;;;33.53;31.38;;;;;;;12.27;74.57;100452.69;4940471;28;101995;-53
2022/11/23 10:57:55;;;;;;;37.17;34.72;;;;;;;12.29;74.46;100460.56;4941680;28;102015;-54
2022/11/23 11:00:23;;;;;;;31.70;29.60;;;;;;;12.25;74.41;100443.97;4944922;28;102367;-53
2022/11/23 11:02:53;;;;;;;33.28;31.15;;;;;;;12.26;74.66;100440.16;4939594;28;104175;-53
2022/11/23 11:05:30;;;;;;;34.92;32.78;;;;;;;12.27;74.63;100428.13;4940826;28;102160;-53
2022/11/23 11:07:58;;;;;;;32.05;30.00;;;;;;;12.27;74.40;100430.06;4967415;28;101952;-53
2022/11/23 11:10:37;;;;;;;37.13;34.80;;;;;;;12.27;74.66;100427.31;4950550;28;102310;-54
2022/11/23 11:13:21;;;;;;;34.20;31.95;;;;;;;12.27;74.54;100425.41;4958421;28;104107;-53
2022/11/23 11:15:53;;;;;;;30.35;28.42;;;;;;;12.30;74.42;100429.47;4945444;28;102217;-54
2022/11/23 11:18:25;;;;;;;33.55;31.30;;;;;;;12.31;74.51;100430.28;4940545;28;102345;-53
2022/11/23 11:20:57;;;;;;;33.17;30.92;;;;;;;12.31;74.48;100425.63;4945701;28;102244;-54
2022/11/23 11:23:24;;;;;;;33.22;31.02;;;;;;;12.31;74.51;100424.84;4954048;28;104171;-54
2022/11/23 11:26:03;;;;;;;32.67;30.55;;;;;;;12.31;74.29;100419.38;4958509;28;102046;-53
2022/11/23 11:28:35;;;;;;;33.88;31.63;;;;;;;12.32;74.49;100405.44;4947275;28;102435;-54
2022/11/23 11:31:32;;;;;;;31.88;29.88;;;;;;;12.31;74.54;100403.00;4952126;28;102025;-54
2022/11/23 11:34:10;;;;;;;29.67;27.58;;;;;;;12.32;74.81;100404.63;4947282;28;104002;-54
2022/11/23 11:36:42;;;;;;;30.52;28.55;;;;;;;12.33;74.88;100392.59;4955109;28;102414;-54
2022/11/23 11:39:14;;;;;;;30.73;28.80;;;;;;;12.33;74.66;100376.22;4949869;28;102457;-54
2022/11/23 11:41:42;;;;;;;31.73;29.60;;;;;;;12.33;74.76;100378.94;4953039;28;102498;-54
2022/11/23 11:44:18;;;;;;;30.75;28.80;;;;;;;12.34;75.06;100391.50;4970603;28;103888;-54
2022/11/23 11:46:49;;;;;;;29.00;27.25;;;;;;;12.35;74.92;100387.66;4963635;28;102582;-54
2022/11/23 11:49:24;;;;;;;32.92;30.73;;;;;;;12.36;74.92;100378.38;4950225;28;102301;-54
2022/11/23 11:51:54;;;;;;;31.95;29.77;;;;;;;12.36;75.22;100370.19;4950881;28;102549;-54
2022/11/23 11:54:30;;;;;;;28.85;26.80;;;;;;;12.36;75.04;100378.38;4940922;28;103992;-54
2022/11/23 11:57:01;;;;;;;31.35;29.48;;;;;;;12.35;75.15;100363.13;4936203;28;103348;-54
2022/11/23 11:59:34;;;;;;;28.73;26.75;;;;;;;12.36;75.32;100362.00;4943196;28;102339;-54